sensor_id;sensor_type;location;lat;lon;timestamp;P1;durP1;ratioP1;P2;durP2;ratioP2
15194;SDS011;7698;42.478;23.756;2022-08-18T00:01:57;9.63;;;8.73;;
15194;SDS011;7698;42.478;23.756;2022-08-18T00:04:28;9.07;;;8.27;;
15194;SDS011;7698;42.478;23.756;2022-08-18T00:06:56;8.27;;;7.57;;
15194;SDS011;7698;42.478;23.756;2022-08-18T00:09:23;8.38;;;7.68;;
15194;SDS011;7698;42.478;23.756;2022-08-18T00:11:49;7.10;;;6.60;;
15194;SDS011;7698;42.478;23.756;2022-08-18T00:14:18;7.00;;;6.45;;
15194;SDS011;7698;42.478;23.756;2022-08-18T00:16:46;7.38;;;6.80;;
15194;SDS011;7698;42.478;23.756;2022-08-18T00:19:14;7.43;;;6.72;;
15194;SDS011;7698;42.478;23.756;2022-08-18T00:21:41;7.22;;;6.55;;
15194;SDS011;7698;42.478;23.756;2022-08-18T00:24:08;7.07;;;6.47;;
15194;SDS011;7698;42.478;23.756;2022-08-18T00:26:34;6.18;;;5.68;;
15194;SDS011;7698;42.478;23.756;2022-08-18T00:29:01;7.18;;;6.68;;
15194;SDS011;7698;42.478;23.756;2022-08-18T00:31:28;6.70;;;6.20;;
15194;SDS011;7698;42.478;23.756;2022-08-18T00:33:55;6.57;;;6.13;;
15194;SDS011;7698;42.478;23.756;2022-08-18T00:36:23;7.10;;;6.50;;
15194;SDS011;7698;42.478;23.756;2022-08-18T00:38:51;7.38;;;6.70;;
15194;SDS011;7698;42.478;23.756;2022-08-18T00:41:18;6.68;;;6.18;;
15194;SDS011;7698;42.478;23.756;2022-08-18T00:43:46;6.47;;;6.05;;
15194;SDS011;7698;42.478;23.756;2022-08-18T00:46:17;10.23;;;6.50;;
15194;SDS011;7698;42.478;23.756;2022-08-18T00:48:46;6.88;;;6.28;;
15194;SDS011;7698;42.478;23.756;2022-08-18T00:51:14;7.47;;;6.90;;
15194;SDS011;7698;42.478;23.756;2022-08-18T00:53:46;8.15;;;7.38;;
15194;SDS011;7698;42.478;23.756;2022-08-18T00:56:19;8.90;;;8.20;;
15194;SDS011;7698;42.478;23.756;2022-08-18T00:58:50;9.65;;;8.68;;
15194;SDS011;7698;42.478;23.756;2022-08-18T01:01:22;9.85;;;8.98;;
15194;SDS011;7698;42.478;23.756;2022-08-18T01:03:53;9.55;;;8.73;;
15194;SDS011;7698;42.478;23.756;2022-08-18T01:06:27;9.40;;;8.48;;
15194;SDS011;7698;42.478;23.756;2022-08-18T01:08:58;9.18;;;8.43;;
15194;SDS011;7698;42.478;23.756;2022-08-18T01:11:25;9.43;;;8.52;;
15194;SDS011;7698;42.478;23.756;2022-08-18T01:13:53;8.80;;;8.10;;
15194;SDS011;7698;42.478;23.756;2022-08-18T01:16:20;9.38;;;8.57;;
15194;SDS011;7698;42.478;23.756;2022-08-18T01:19:04;9.15;;;8.25;;
15194;SDS011;7698;42.478;23.756;2022-08-18T01:21:50;8.23;;;7.45;;
15194;SDS011;7698;42.478;23.756;2022-08-18T01:24:26;7.63;;;7.05;;
15194;SDS011;7698;42.478;23.756;2022-08-18T01:27:09;7.15;;;6.53;;
15194;SDS011;7698;42.478;23.756;2022-08-18T01:29:39;7.30;;;6.30;;
15194;SDS011;7698;42.478;23.756;2022-08-18T01:32:06;7.07;;;6.57;;
15194;SDS011;7698;42.478;23.756;2022-08-18T01:34:32;6.35;;;5.85;;
15194;SDS011;7698;42.478;23.756;2022-08-18T01:36:59;7.25;;;6.60;;
15194;SDS011;7698;42.478;23.756;2022-08-18T01:39:30;6.70;;;6.22;;
15194;SDS011;7698;42.478;23.756;2022-08-18T01:41:57;6.65;;;6.15;;
15194;SDS011;7698;42.478;23.756;2022-08-18T01:44:23;7.60;;;7.00;;
15194;SDS011;7698;42.478;23.756;2022-08-18T01:46:51;7.30;;;6.70;;
15194;SDS011;7698;42.478;23.756;2022-08-18T01:49:18;7.38;;;6.75;;
15194;SDS011;7698;42.478;23.756;2022-08-18T01:51:45;7.47;;;6.88;;
15194;SDS011;7698;42.478;23.756;2022-08-18T01:54:13;7.00;;;6.50;;
15194;SDS011;7698;42.478;23.756;2022-08-18T01:56:41;8.93;;;8.23;;
15194;SDS011;7698;42.478;23.756;2022-08-18T01:59:09;10.07;;;9.13;;
15194;SDS011;7698;42.478;23.756;2022-08-18T02:01:39;9.55;;;8.77;;
15194;SDS011;7698;42.478;23.756;2022-08-18T02:04:07;11.38;;;10.27;;
15194;SDS011;7698;42.478;23.756;2022-08-18T02:06:36;10.50;;;9.80;;
15194;SDS011;7698;42.478;23.756;2022-08-18T02:09:03;10.68;;;9.77;;
15194;SDS011;7698;42.478;23.756;2022-08-18T02:11:30;10.73;;;9.93;;
15194;SDS011;7698;42.478;23.756;2022-08-18T02:13:58;12.52;;;11.45;;
15194;SDS011;7698;42.478;23.756;2022-08-18T02:16:25;14.18;;;13.07;;
15194;SDS011;7698;42.478;23.756;2022-08-18T02:18:52;12.60;;;11.52;;
15194;SDS011;7698;42.478;23.756;2022-08-18T02:21:19;11.60;;;10.73;;
15194;SDS011;7698;42.478;23.756;2022-08-18T02:23:47;13.40;;;12.20;;
15194;SDS011;7698;42.478;23.756;2022-08-18T02:26:15;12.10;;;10.98;;
15194;SDS011;7698;42.478;23.756;2022-08-18T02:28:43;10.45;;;9.32;;
15194;SDS011;7698;42.478;23.756;2022-08-18T02:31:15;8.88;;;8.13;;
15194;SDS011;7698;42.478;23.756;2022-08-18T02:33:44;8.75;;;7.60;;
15194;SDS011;7698;42.478;23.756;2022-08-18T02:36:12;8.52;;;7.55;;
15194;SDS011;7698;42.478;23.756;2022-08-18T02:38:39;7.78;;;7.03;;
15194;SDS011;7698;42.478;23.756;2022-08-18T02:41:07;8.65;;;7.88;;
15194;SDS011;7698;42.478;23.756;2022-08-18T02:43:36;8.45;;;7.85;;
15194;SDS011;7698;42.478;23.756;2022-08-18T02:46:05;8.02;;;7.35;;
15194;SDS011;7698;42.478;23.756;2022-08-18T02:48:34;9.10;;;8.50;;
15194;SDS011;7698;42.478;23.756;2022-08-18T02:51:02;8.88;;;8.23;;
15194;SDS011;7698;42.478;23.756;2022-08-18T02:53:29;9.98;;;9.07;;
15194;SDS011;7698;42.478;23.756;2022-08-18T02:56:03;9.35;;;8.65;;
15194;SDS011;7698;42.478;23.756;2022-08-18T02:58:36;11.20;;;10.10;;
15194;SDS011;7698;42.478;23.756;2022-08-18T03:01:03;11.15;;;10.35;;
15194;SDS011;7698;42.478;23.756;2022-08-18T03:03:30;10.55;;;9.75;;
15194;SDS011;7698;42.478;23.756;2022-08-18T03:05:58;10.90;;;10.00;;
15194;SDS011;7698;42.478;23.756;2022-08-18T03:08:25;11.18;;;10.27;;
15194;SDS011;7698;42.478;23.756;2022-08-18T03:10:52;12.10;;;11.00;;
15194;SDS011;7698;42.478;23.756;2022-08-18T03:13:19;13.27;;;12.27;;
15194;SDS011;7698;42.478;23.756;2022-08-18T03:15:45;16.08;;;14.68;;
15194;SDS011;7698;42.478;23.756;2022-08-18T03:18:12;15.07;;;13.90;;
15194;SDS011;7698;42.478;23.756;2022-08-18T03:20:39;15.82;;;14.60;;
15194;SDS011;7698;42.478;23.756;2022-08-18T03:23:09;15.93;;;14.68;;
15194;SDS011;7698;42.478;23.756;2022-08-18T03:25:41;16.20;;;14.90;;
15194;SDS011;7698;42.478;23.756;2022-08-18T03:28:09;15.85;;;14.63;;
15194;SDS011;7698;42.478;23.756;2022-08-18T03:30:36;18.10;;;16.52;;
15194;SDS011;7698;42.478;23.756;2022-08-18T03:33:03;17.00;;;15.57;;
15194;SDS011;7698;42.478;23.756;2022-08-18T03:35:30;17.80;;;16.40;;
15194;SDS011;7698;42.478;23.756;2022-08-18T03:37:58;17.48;;;16.17;;
15194;SDS011;7698;42.478;23.756;2022-08-18T03:40:27;18.73;;;17.20;;
15194;SDS011;7698;42.478;23.756;2022-08-18T03:42:54;18.75;;;17.25;;
15194;SDS011;7698;42.478;23.756;2022-08-18T03:45:21;18.83;;;17.45;;
15194;SDS011;7698;42.478;23.756;2022-08-18T03:47:48;18.05;;;16.65;;
15194;SDS011;7698;42.478;23.756;2022-08-18T03:50:16;18.15;;;16.55;;
15194;SDS011;7698;42.478;23.756;2022-08-18T03:52:43;19.52;;;17.83;;
15194;SDS011;7698;42.478;23.756;2022-08-18T03:55:12;21.10;;;19.40;;
15194;SDS011;7698;42.478;23.756;2022-08-18T03:57:41;20.08;;;18.42;;
15194;SDS011;7698;42.478;23.756;2022-08-18T04:00:09;19.60;;;18.10;;
15194;SDS011;7698;42.478;23.756;2022-08-18T04:02:37;17.63;;;16.23;;
15194;SDS011;7698;42.478;23.756;2022-08-18T04:05:04;18.60;;;17.10;;
15194;SDS011;7698;42.478;23.756;2022-08-18T04:07:34;18.35;;;16.95;;
15194;SDS011;7698;42.478;23.756;2022-08-18T04:10:01;19.60;;;17.85;;
15194;SDS011;7698;42.478;23.756;2022-08-18T04:12:28;17.13;;;15.82;;
15194;SDS011;7698;42.478;23.756;2022-08-18T04:14:56;17.30;;;16.00;;
15194;SDS011;7698;42.478;23.756;2022-08-18T04:17:23;18.83;;;17.08;;
15194;SDS011;7698;42.478;23.756;2022-08-18T04:19:50;17.67;;;16.17;;
15194;SDS011;7698;42.478;23.756;2022-08-18T04:22:17;17.17;;;15.95;;
15194;SDS011;7698;42.478;23.756;2022-08-18T04:24:44;16.98;;;15.65;;
15194;SDS011;7698;42.478;23.756;2022-08-18T04:27:12;15.98;;;14.77;;
15194;SDS011;7698;42.478;23.756;2022-08-18T04:29:39;13.68;;;12.65;;
15194;SDS011;7698;42.478;23.756;2022-08-18T04:32:07;12.93;;;11.93;;
15194;SDS011;7698;42.478;23.756;2022-08-18T04:34:34;12.00;;;10.98;;
15194;SDS011;7698;42.478;23.756;2022-08-18T04:37:01;10.05;;;9.35;;
15194;SDS011;7698;42.478;23.756;2022-08-18T04:39:28;11.75;;;10.73;;
15194;SDS011;7698;42.478;23.756;2022-08-18T04:41:55;10.27;;;9.43;;
15194;SDS011;7698;42.478;23.756;2022-08-18T04:44:23;10.93;;;9.05;;
15194;SDS011;7698;42.478;23.756;2022-08-18T04:46:50;8.80;;;8.15;;
15194;SDS011;7698;42.478;23.756;2022-08-18T04:49:20;8.90;;;8.30;;
15194;SDS011;7698;42.478;23.756;2022-08-18T04:51:50;9.50;;;8.63;;
15194;SDS011;7698;42.478;23.756;2022-08-18T04:54:31;8.85;;;8.15;;
15194;SDS011;7698;42.478;23.756;2022-08-18T04:57:05;8.70;;;7.95;;
15194;SDS011;7698;42.478;23.756;2022-08-18T04:59:33;10.55;;;9.82;;
15194;SDS011;7698;42.478;23.756;2022-08-18T05:02:01;10.25;;;9.25;;
15194;SDS011;7698;42.478;23.756;2022-08-18T05:04:31;9.23;;;8.32;;
15194;SDS011;7698;42.478;23.756;2022-08-18T05:06:59;10.20;;;9.50;;
15194;SDS011;7698;42.478;23.756;2022-08-18T05:09:26;10.85;;;9.98;;
15194;SDS011;7698;42.478;23.756;2022-08-18T05:11:52;11.18;;;10.27;;
15194;SDS011;7698;42.478;23.756;2022-08-18T05:14:19;9.43;;;8.73;;
15194;SDS011;7698;42.478;23.756;2022-08-18T05:16:46;10.45;;;9.63;;
15194;SDS011;7698;42.478;23.756;2022-08-18T05:19:14;10.30;;;9.57;;
15194;SDS011;7698;42.478;23.756;2022-08-18T05:21:45;10.35;;;9.60;;
15194;SDS011;7698;42.478;23.756;2022-08-18T05:24:12;12.88;;;10.38;;
15194;SDS011;7698;42.478;23.756;2022-08-18T05:26:38;11.65;;;10.75;;
15194;SDS011;7698;42.478;23.756;2022-08-18T05:29:06;11.40;;;10.38;;
15194;SDS011;7698;42.478;23.756;2022-08-18T05:31:33;10.98;;;9.88;;
15194;SDS011;7698;42.478;23.756;2022-08-18T05:33:59;9.85;;;9.18;;
15194;SDS011;7698;42.478;23.756;2022-08-18T05:36:42;9.77;;;8.93;;
15194;SDS011;7698;42.478;23.756;2022-08-18T05:39:24;10.25;;;9.23;;
15194;SDS011;7698;42.478;23.756;2022-08-18T05:41:59;12.35;;;8.80;;
15194;SDS011;7698;42.478;23.756;2022-08-18T05:44:31;9.23;;;8.32;;
15194;SDS011;7698;42.478;23.756;2022-08-18T05:47:02;9.65;;;8.70;;
15194;SDS011;7698;42.478;23.756;2022-08-18T05:49:32;8.45;;;7.65;;
15194;SDS011;7698;42.478;23.756;2022-08-18T05:52:04;6.90;;;6.30;;
15194;SDS011;7698;42.478;23.756;2022-08-18T05:54:36;8.85;;;6.65;;
15194;SDS011;7698;42.478;23.756;2022-08-18T05:57:26;6.18;;;5.60;;
15194;SDS011;7698;42.478;23.756;2022-08-18T05:59:56;8.18;;;7.35;;
15194;SDS011;7698;42.478;23.756;2022-08-18T06:02:27;7.97;;;7.28;;
15194;SDS011;7698;42.478;23.756;2022-08-18T06:04:59;7.07;;;6.47;;
15194;SDS011;7698;42.478;23.756;2022-08-18T06:07:32;7.57;;;6.85;;
15194;SDS011;7698;42.478;23.756;2022-08-18T06:10:03;7.60;;;6.88;;
15194;SDS011;7698;42.478;23.756;2022-08-18T06:12:33;7.65;;;6.90;;
15194;SDS011;7698;42.478;23.756;2022-08-18T06:15:04;6.90;;;6.28;;
15194;SDS011;7698;42.478;23.756;2022-08-18T06:17:45;7.28;;;6.68;;
15194;SDS011;7698;42.478;23.756;2022-08-18T06:20:31;7.10;;;6.60;;
15194;SDS011;7698;42.478;23.756;2022-08-18T06:23:12;8.68;;;7.65;;
15194;SDS011;7698;42.478;23.756;2022-08-18T06:25:53;7.45;;;6.88;;
15194;SDS011;7698;42.478;23.756;2022-08-18T06:28:30;7.78;;;7.20;;
15194;SDS011;7698;42.478;23.756;2022-08-18T06:31:06;6.85;;;6.30;;
15194;SDS011;7698;42.478;23.756;2022-08-18T06:33:44;7.28;;;6.35;;
15194;SDS011;7698;42.478;23.756;2022-08-18T06:36:32;7.00;;;6.50;;
15194;SDS011;7698;42.478;23.756;2022-08-18T06:39:06;7.03;;;6.45;;
15194;SDS011;7698;42.478;23.756;2022-08-18T06:41:43;6.38;;;5.88;;
15194;SDS011;7698;42.478;23.756;2022-08-18T06:44:16;6.50;;;6.00;;
15194;SDS011;7698;42.478;23.756;2022-08-18T06:46:49;6.75;;;6.05;;
15194;SDS011;7698;42.478;23.756;2022-08-18T06:49:33;5.85;;;5.35;;
15194;SDS011;7698;42.478;23.756;2022-08-18T06:52:21;5.53;;;5.13;;
15194;SDS011;7698;42.478;23.756;2022-08-18T06:54:53;6.18;;;5.68;;
15194;SDS011;7698;42.478;23.756;2022-08-18T06:57:23;6.45;;;5.95;;
15194;SDS011;7698;42.478;23.756;2022-08-18T06:59:53;7.32;;;6.28;;
15194;SDS011;7698;42.478;23.756;2022-08-18T07:02:24;6.25;;;5.72;;
15194;SDS011;7698;42.478;23.756;2022-08-18T07:05:03;7.38;;;5.85;;
15194;SDS011;7698;42.478;23.756;2022-08-18T07:07:34;5.88;;;5.38;;
15194;SDS011;7698;42.478;23.756;2022-08-18T07:10:05;5.75;;;5.25;;
15194;SDS011;7698;42.478;23.756;2022-08-18T07:13:01;5.38;;;5.00;;
15194;SDS011;7698;42.478;23.756;2022-08-18T07:15:32;5.20;;;4.80;;
15194;SDS011;7698;42.478;23.756;2022-08-18T07:18:01;4.97;;;4.53;;
15194;SDS011;7698;42.478;23.756;2022-08-18T07:20:29;5.70;;;5.18;;
15194;SDS011;7698;42.478;23.756;2022-08-18T07:22:57;4.88;;;4.57;;
15194;SDS011;7698;42.478;23.756;2022-08-18T07:25:27;7.72;;;6.82;;
15194;SDS011;7698;42.478;23.756;2022-08-18T07:27:56;5.18;;;4.82;;
15194;SDS011;7698;42.478;23.756;2022-08-18T07:30:28;7.82;;;5.13;;
15194;SDS011;7698;42.478;23.756;2022-08-18T07:32:59;5.00;;;4.50;;
15194;SDS011;7698;42.478;23.756;2022-08-18T07:35:35;5.07;;;4.35;;
15194;SDS011;7698;42.478;23.756;2022-08-18T07:38:06;3.75;;;3.45;;
15194;SDS011;7698;42.478;23.756;2022-08-18T07:40:44;4.63;;;4.22;;
15194;SDS011;7698;42.478;23.756;2022-08-18T07:43:20;4.00;;;3.70;;
15194;SDS011;7698;42.478;23.756;2022-08-18T07:45:54;4.30;;;3.90;;
15194;SDS011;7698;42.478;23.756;2022-08-18T07:48:30;4.68;;;3.38;;
15194;SDS011;7698;42.478;23.756;2022-08-18T07:50:59;3.55;;;3.35;;
15194;SDS011;7698;42.478;23.756;2022-08-18T07:53:35;3.78;;;3.47;;
15194;SDS011;7698;42.478;23.756;2022-08-18T07:56:19;4.25;;;3.50;;
15194;SDS011;7698;42.478;23.756;2022-08-18T07:58:55;6.75;;;3.38;;
15194;SDS011;7698;42.478;23.756;2022-08-18T08:01:28;4.68;;;3.35;;
15194;SDS011;7698;42.478;23.756;2022-08-18T08:04:08;4.65;;;3.20;;
15194;SDS011;7698;42.478;23.756;2022-08-18T08:06:42;5.55;;;3.75;;
15194;SDS011;7698;42.478;23.756;2022-08-18T08:09:16;4.25;;;3.85;;
15194;SDS011;7698;42.478;23.756;2022-08-18T08:11:54;3.83;;;3.47;;
15194;SDS011;7698;42.478;23.756;2022-08-18T08:14:28;3.78;;;3.47;;
15194;SDS011;7698;42.478;23.756;2022-08-18T08:17:06;4.07;;;3.67;;
15194;SDS011;7698;42.478;23.756;2022-08-18T08:19:48;6.63;;;3.30;;
15194;SDS011;7698;42.478;23.756;2022-08-18T08:22:30;4.60;;;3.28;;
15194;SDS011;7698;42.478;23.756;2022-08-18T08:25:04;5.32;;;3.78;;
15194;SDS011;7698;42.478;23.756;2022-08-18T08:27:46;3.60;;;3.30;;
15194;SDS011;7698;42.478;23.756;2022-08-18T08:30:22;4.38;;;3.20;;
15194;SDS011;7698;42.478;23.756;2022-08-18T08:32:55;3.38;;;3.08;;
15194;SDS011;7698;42.478;23.756;2022-08-18T08:35:34;3.40;;;3.17;;
15194;SDS011;7698;42.478;23.756;2022-08-18T08:38:14;4.85;;;3.35;;
15194;SDS011;7698;42.478;23.756;2022-08-18T08:40:46;3.38;;;3.08;;
15194;SDS011;7698;42.478;23.756;2022-08-18T08:43:22;3.53;;;3.00;;
15194;SDS011;7698;42.478;23.756;2022-08-18T08:45:59;4.20;;;3.47;;
15194;SDS011;7698;42.478;23.756;2022-08-18T08:48:33;3.60;;;2.97;;
15194;SDS011;7698;42.478;23.756;2022-08-18T08:51:15;3.83;;;3.53;;
15194;SDS011;7698;42.478;23.756;2022-08-18T08:53:56;4.25;;;3.88;;
15194;SDS011;7698;42.478;23.756;2022-08-18T08:56:29;4.22;;;3.83;;
15194;SDS011;7698;42.478;23.756;2022-08-18T08:59:02;5.05;;;3.90;;
15194;SDS011;7698;42.478;23.756;2022-08-18T09:01:33;4.00;;;3.70;;
15194;SDS011;7698;42.478;23.756;2022-08-18T09:04:11;3.95;;;3.10;;
15194;SDS011;7698;42.478;23.756;2022-08-18T09:06:56;3.85;;;3.47;;
15194;SDS011;7698;42.478;23.756;2022-08-18T09:09:44;3.95;;;3.53;;
15194;SDS011;7698;42.478;23.756;2022-08-18T09:12:23;4.13;;;3.30;;
15194;SDS011;7698;42.478;23.756;2022-08-18T09:18:10;3.95;;;3.50;;
15194;SDS011;7698;42.478;23.756;2022-08-18T09:20:55;6.30;;;3.60;;
15194;SDS011;7698;42.478;23.756;2022-08-18T09:23:31;3.97;;;3.65;;
15194;SDS011;7698;42.478;23.756;2022-08-18T09:28:56;4.32;;;3.60;;
15194;SDS011;7698;42.478;23.756;2022-08-18T09:31:26;3.80;;;3.50;;
15194;SDS011;7698;42.478;23.756;2022-08-18T09:37:07;5.85;;;4.10;;
15194;SDS011;7698;42.478;23.756;2022-08-18T09:39:40;5.32;;;4.60;;
15194;SDS011;7698;42.478;23.756;2022-08-18T09:42:29;4.25;;;3.95;;
15194;SDS011;7698;42.478;23.756;2022-08-18T09:45:02;4.18;;;3.85;;
15194;SDS011;7698;42.478;23.756;2022-08-18T09:50:37;6.50;;;4.00;;
15194;SDS011;7698;42.478;23.756;2022-08-18T09:53:34;3.72;;;3.53;;
15194;SDS011;7698;42.478;23.756;2022-08-18T09:56:17;4.10;;;3.80;;
15194;SDS011;7698;42.478;23.756;2022-08-18T09:59:57;4.47;;;4.07;;
15194;SDS011;7698;42.478;23.756;2022-08-18T10:05:31;4.00;;;3.70;;
15194;SDS011;7698;42.478;23.756;2022-08-18T10:11:24;3.95;;;3.70;;
15194;SDS011;7698;42.478;23.756;2022-08-18T10:14:06;4.20;;;3.80;;
15194;SDS011;7698;42.478;23.756;2022-08-18T10:16:52;4.22;;;3.80;;
15194;SDS011;7698;42.478;23.756;2022-08-18T10:19:27;6.28;;;4.10;;
15194;SDS011;7698;42.478;23.756;2022-08-18T10:22:02;3.70;;;3.40;;
15194;SDS011;7698;42.478;23.756;2022-08-18T10:24:34;5.40;;;4.68;;
15194;SDS011;7698;42.478;23.756;2022-08-18T10:27:06;4.75;;;3.80;;
15194;SDS011;7698;42.478;23.756;2022-08-18T10:29:48;3.92;;;3.45;;
15194;SDS011;7698;42.478;23.756;2022-08-18T10:38:18;4.30;;;3.67;;
15194;SDS011;7698;42.478;23.756;2022-08-18T10:41:11;4.63;;;4.15;;
15194;SDS011;7698;42.478;23.756;2022-08-18T10:43:47;6.03;;;4.20;;
15194;SDS011;7698;42.478;23.756;2022-08-18T10:46:17;4.10;;;3.70;;
15194;SDS011;7698;42.478;23.756;2022-08-18T10:48:56;5.35;;;3.80;;
15194;SDS011;7698;42.478;23.756;2022-08-18T10:51:27;4.32;;;3.92;;
15194;SDS011;7698;42.478;23.756;2022-08-18T10:54:08;4.30;;;3.85;;
15194;SDS011;7698;42.478;23.756;2022-08-18T10:56:48;4.60;;;4.30;;
15194;SDS011;7698;42.478;23.756;2022-08-18T10:59:20;5.65;;;4.05;;
15194;SDS011;7698;42.478;23.756;2022-08-18T11:01:57;4.15;;;3.85;;
15194;SDS011;7698;42.478;23.756;2022-08-18T11:04:33;4.35;;;3.95;;
15194;SDS011;7698;42.478;23.756;2022-08-18T11:07:05;4.13;;;3.67;;
15194;SDS011;7698;42.478;23.756;2022-08-18T11:09:35;3.92;;;3.67;;
15194;SDS011;7698;42.478;23.756;2022-08-18T11:12:03;8.27;;;3.78;;
15194;SDS011;7698;42.478;23.756;2022-08-18T11:17:43;4.47;;;4.07;;
15194;SDS011;7698;42.478;23.756;2022-08-18T11:20:20;5.03;;;4.18;;
15194;SDS011;7698;42.478;23.756;2022-08-18T11:22:53;4.07;;;3.67;;
15194;SDS011;7698;42.478;23.756;2022-08-18T11:25:22;4.40;;;4.00;;
15194;SDS011;7698;42.478;23.756;2022-08-18T11:27:52;3.90;;;3.53;;
15194;SDS011;7698;42.478;23.756;2022-08-18T11:30:21;6.78;;;3.60;;
15194;SDS011;7698;42.478;23.756;2022-08-18T11:32:52;5.43;;;3.88;;
15194;SDS011;7698;42.478;23.756;2022-08-18T11:35:20;4.78;;;4.30;;
15194;SDS011;7698;42.478;23.756;2022-08-18T11:37:52;4.60;;;4.00;;
15194;SDS011;7698;42.478;23.756;2022-08-18T11:40:24;4.30;;;3.92;;
15194;SDS011;7698;42.478;23.756;2022-08-18T11:42:57;4.47;;;3.70;;
15194;SDS011;7698;42.478;23.756;2022-08-18T11:45:30;3.72;;;3.45;;
15194;SDS011;7698;42.478;23.756;2022-08-18T11:48:09;4.57;;;3.67;;
15194;SDS011;7698;42.478;23.756;2022-08-18T11:50:47;4.63;;;3.88;;
15194;SDS011;7698;42.478;23.756;2022-08-18T11:53:34;5.43;;;3.90;;
15194;SDS011;7698;42.478;23.756;2022-08-18T11:56:04;4.18;;;3.78;;
15194;SDS011;7698;42.478;23.756;2022-08-18T11:58:40;4.57;;;3.42;;
15194;SDS011;7698;42.478;23.756;2022-08-18T12:01:11;3.95;;;3.55;;
15194;SDS011;7698;42.478;23.756;2022-08-18T12:03:56;5.18;;;3.47;;
15194;SDS011;7698;42.478;23.756;2022-08-18T12:06:26;5.03;;;4.25;;
15194;SDS011;7698;42.478;23.756;2022-08-18T12:08:57;3.67;;;3.35;;
15194;SDS011;7698;42.478;23.756;2022-08-18T12:11:27;3.80;;;3.55;;
15194;SDS011;7698;42.478;23.756;2022-08-18T12:14:01;4.55;;;3.72;;
15194;SDS011;7698;42.478;23.756;2022-08-18T12:16:33;4.80;;;4.40;;
15194;SDS011;7698;42.478;23.756;2022-08-18T12:19:02;3.97;;;3.60;;
15194;SDS011;7698;42.478;23.756;2022-08-18T12:21:30;5.03;;;4.03;;
15194;SDS011;7698;42.478;23.756;2022-08-18T12:23:57;3.85;;;3.50;;
15194;SDS011;7698;42.478;23.756;2022-08-18T12:26:24;3.97;;;3.67;;
15194;SDS011;7698;42.478;23.756;2022-08-18T12:28:51;6.65;;;4.63;;
15194;SDS011;7698;42.478;23.756;2022-08-18T12:31:18;4.10;;;3.70;;
15194;SDS011;7698;42.478;23.756;2022-08-18T12:33:46;4.00;;;3.70;;
15194;SDS011;7698;42.478;23.756;2022-08-18T12:36:13;3.85;;;3.55;;
15194;SDS011;7698;42.478;23.756;2022-08-18T12:38:41;4.18;;;3.83;;
15194;SDS011;7698;42.478;23.756;2022-08-18T12:41:10;4.53;;;4.20;;
15194;SDS011;7698;42.478;23.756;2022-08-18T12:43:39;4.55;;;3.95;;
15194;SDS011;7698;42.478;23.756;2022-08-18T12:46:07;4.43;;;4.00;;
15194;SDS011;7698;42.478;23.756;2022-08-18T12:48:34;4.25;;;3.78;;
15194;SDS011;7698;42.478;23.756;2022-08-18T12:51:04;5.13;;;4.03;;
15194;SDS011;7698;42.478;23.756;2022-08-18T12:53:32;4.72;;;3.45;;
15194;SDS011;7698;42.478;23.756;2022-08-18T12:55:59;4.20;;;3.80;;
15194;SDS011;7698;42.478;23.756;2022-08-18T12:58:27;3.92;;;3.53;;
15194;SDS011;7698;42.478;23.756;2022-08-18T13:00:54;4.28;;;3.90;;
15194;SDS011;7698;42.478;23.756;2022-08-18T13:03:21;6.05;;;3.92;;
15194;SDS011;7698;42.478;23.756;2022-08-18T13:05:48;3.92;;;3.58;;
15194;SDS011;7698;42.478;23.756;2022-08-18T13:08:17;3.78;;;3.58;;
15194;SDS011;7698;42.478;23.756;2022-08-18T13:10:46;4.43;;;4.05;;
15194;SDS011;7698;42.478;23.756;2022-08-18T13:13:15;5.60;;;3.70;;
15194;SDS011;7698;42.478;23.756;2022-08-18T13:15:43;4.63;;;4.07;;
15194;SDS011;7698;42.478;23.756;2022-08-18T13:18:11;4.32;;;3.90;;
15194;SDS011;7698;42.478;23.756;2022-08-18T13:20:39;4.30;;;3.75;;
15194;SDS011;7698;42.478;23.756;2022-08-18T13:23:06;4.03;;;3.72;;
15194;SDS011;7698;42.478;23.756;2022-08-18T13:25:35;4.25;;;3.85;;
15194;SDS011;7698;42.478;23.756;2022-08-18T13:28:05;5.45;;;3.80;;
15194;SDS011;7698;42.478;23.756;2022-08-18T13:30:32;3.78;;;3.47;;
15194;SDS011;7698;42.478;23.756;2022-08-18T13:33:00;3.35;;;3.15;;
15194;SDS011;7698;42.478;23.756;2022-08-18T13:35:27;5.68;;;4.55;;
15194;SDS011;7698;42.478;23.756;2022-08-18T13:37:54;4.15;;;3.72;;
15194;SDS011;7698;42.478;23.756;2022-08-18T13:40:21;6.38;;;3.50;;
15194;SDS011;7698;42.478;23.756;2022-08-18T13:42:49;3.65;;;3.35;;
15194;SDS011;7698;42.478;23.756;2022-08-18T13:45:17;3.55;;;3.25;;
15194;SDS011;7698;42.478;23.756;2022-08-18T13:47:47;3.78;;;3.35;;
15194;SDS011;7698;42.478;23.756;2022-08-18T13:50:14;4.13;;;3.53;;
15194;SDS011;7698;42.478;23.756;2022-08-18T13:52:42;3.47;;;3.28;;
15194;SDS011;7698;42.478;23.756;2022-08-18T13:55:10;3.50;;;3.25;;
15194;SDS011;7698;42.478;23.756;2022-08-18T13:57:38;4.13;;;3.72;;
15194;SDS011;7698;42.478;23.756;2022-08-18T14:00:08;3.60;;;3.30;;
15194;SDS011;7698;42.478;23.756;2022-08-18T14:02:38;5.15;;;3.80;;
15194;SDS011;7698;42.478;23.756;2022-08-18T14:05:05;4.22;;;3.70;;
15194;SDS011;7698;42.478;23.756;2022-08-18T14:07:33;3.88;;;3.53;;
15194;SDS011;7698;42.478;23.756;2022-08-18T14:10:01;5.90;;;3.47;;
15194;SDS011;7698;42.478;23.756;2022-08-18T14:12:28;3.72;;;3.22;;
15194;SDS011;7698;42.478;23.756;2022-08-18T14:14:56;3.30;;;3.00;;
15194;SDS011;7698;42.478;23.756;2022-08-18T14:17:24;3.78;;;3.33;;
15194;SDS011;7698;42.478;23.756;2022-08-18T14:19:52;4.50;;;3.72;;
15194;SDS011;7698;42.478;23.756;2022-08-18T14:22:37;4.38;;;3.97;;
15194;SDS011;7698;42.478;23.756;2022-08-18T14:25:21;5.95;;;3.50;;
15194;SDS011;7698;42.478;23.756;2022-08-18T14:28:06;3.78;;;3.47;;
15194;SDS011;7698;42.478;23.756;2022-08-18T14:30:34;4.00;;;3.10;;
15194;SDS011;7698;42.478;23.756;2022-08-18T14:33:05;6.55;;;3.45;;
15194;SDS011;7698;42.478;23.756;2022-08-18T14:35:34;3.35;;;3.05;;
15194;SDS011;7698;42.478;23.756;2022-08-18T14:38:01;3.58;;;3.38;;
15194;SDS011;7698;42.478;23.756;2022-08-18T14:40:30;3.40;;;3.13;;
15194;SDS011;7698;42.478;23.756;2022-08-18T14:42:57;4.53;;;3.50;;
15194;SDS011;7698;42.478;23.756;2022-08-18T14:45:25;3.80;;;3.20;;
15194;SDS011;7698;42.478;23.756;2022-08-18T14:47:52;3.80;;;3.50;;
15194;SDS011;7698;42.478;23.756;2022-08-18T14:50:20;3.20;;;2.88;;
15194;SDS011;7698;42.478;23.756;2022-08-18T14:52:48;3.88;;;3.58;;
15194;SDS011;7698;42.478;23.756;2022-08-18T14:55:16;3.25;;;3.05;;
15194;SDS011;7698;42.478;23.756;2022-08-18T14:57:44;3.60;;;3.30;;
15194;SDS011;7698;42.478;23.756;2022-08-18T15:00:12;3.50;;;3.20;;
15194;SDS011;7698;42.478;23.756;2022-08-18T15:02:42;4.63;;;4.15;;
15194;SDS011;7698;42.478;23.756;2022-08-18T15:05:12;4.05;;;3.75;;
15194;SDS011;7698;42.478;23.756;2022-08-18T15:07:41;3.60;;;3.30;;
15194;SDS011;7698;42.478;23.756;2022-08-18T15:10:10;3.65;;;3.35;;
15194;SDS011;7698;42.478;23.756;2022-08-18T15:12:38;4.47;;;3.60;;
15194;SDS011;7698;42.478;23.756;2022-08-18T15:15:06;3.83;;;3.35;;
15194;SDS011;7698;42.478;23.756;2022-08-18T15:17:36;4.00;;;3.63;;
15194;SDS011;7698;42.478;23.756;2022-08-18T15:20:04;5.38;;;3.75;;
15194;SDS011;7698;42.478;23.756;2022-08-18T15:22:36;3.75;;;3.38;;
15194;SDS011;7698;42.478;23.756;2022-08-18T15:25:23;3.28;;;3.08;;
15194;SDS011;7698;42.478;23.756;2022-08-18T15:28:09;3.97;;;3.42;;
15194;SDS011;7698;42.478;23.756;2022-08-18T15:30:38;4.38;;;3.97;;
15194;SDS011;7698;42.478;23.756;2022-08-18T15:33:06;4.05;;;3.72;;
15194;SDS011;7698;42.478;23.756;2022-08-18T15:35:35;3.67;;;3.47;;
15194;SDS011;7698;42.478;23.756;2022-08-18T15:38:04;3.40;;;2.97;;